createdAt,value
2022-10-21T00:01:41.199Z,77.57
2022-10-21T00:04:08.002Z,78.51
2022-10-21T00:06:34.555Z,79.62
2022-10-21T00:09:01.309Z,78.92
2022-10-21T00:11:27.987Z,79.15
2022-10-21T00:13:54.562Z,78.52
2022-10-21T00:16:21.066Z,78.42
2022-10-21T00:18:48.696Z,77.81
2022-10-21T00:21:18.561Z,77.87
2022-10-21T00:23:46.426Z,77.76
2022-10-21T00:26:14.505Z,77.97
2022-10-21T00:28:41.361Z,77.60
2022-10-21T00:31:09.410Z,77.97
2022-10-21T00:33:36.751Z,77.87
2022-10-21T00:36:03.958Z,78.04
2022-10-21T00:38:31.567Z,78.03
2022-10-21T00:40:58.773Z,78.07
2022-10-21T00:43:25.784Z,78.00
2022-10-21T00:46:11.350Z,77.64
2022-10-21T00:48:44.601Z,78.45
2022-10-21T00:51:14.500Z,78.31
2022-10-21T00:53:45.908Z,78.61
2022-10-21T00:56:21.399Z,78.62
2022-10-21T00:58:48.915Z,80.01
2022-10-21T01:01:19.123Z,80.99
2022-10-21T01:03:48.651Z,80.75
2022-10-21T01:06:16.583Z,81.59
2022-10-21T01:08:43.459Z,80.63
2022-10-21T01:11:17.438Z,81.17
2022-10-21T01:14:02.564Z,80.98
2022-10-21T01:17:00.610Z,81.38
2022-10-21T01:19:54.321Z,81.47
2022-10-21T01:22:42.701Z,80.51
2022-10-21T01:25:15.365Z,80.46
2022-10-21T01:27:58.176Z,80.05
2022-10-21T01:30:38.541Z,80.19
2022-10-21T01:33:13.847Z,82.42
2022-10-21T01:35:46.222Z,83.95
2022-10-21T01:38:24.594Z,84.10
2022-10-21T01:41:28.207Z,84.20
2022-10-21T01:44:35.654Z,83.90
2022-10-21T01:47:16.434Z,82.96
2022-10-21T01:49:52.922Z,82.04
2022-10-21T01:52:20.071Z,81.20
2022-10-21T01:55:03.683Z,81.19
2022-10-21T01:57:35.206Z,82.05
2022-10-21T02:00:02.128Z,83.55
2022-10-21T02:02:35.866Z,83.69
2022-10-21T02:05:09.385Z,84.24
2022-10-21T02:07:36.221Z,82.86
2022-10-21T02:10:04.770Z,81.97
2022-10-21T02:12:33.699Z,81.15
2022-10-21T02:15:02.530Z,80.81
2022-10-21T02:17:29.389Z,81.08
2022-10-21T02:19:59.516Z,80.31
2022-10-21T02:22:26.890Z,79.68
2022-10-21T02:24:57.790Z,79.46
2022-10-21T02:27:24.580Z,79.14
2022-10-21T02:29:54.914Z,79.18
2022-10-21T02:32:43.500Z,79.08
2022-10-21T02:35:16.101Z,80.70
2022-10-21T02:38:10.187Z,80.37
2022-10-21T02:40:38.414Z,80.06
2022-10-21T02:43:10.072Z,79.42
2022-10-21T02:45:36.938Z,79.18
2022-10-21T02:48:03.800Z,78.79
2022-10-21T02:50:30.497Z,78.42
2022-10-21T02:52:57.475Z,78.22
2022-10-21T02:55:24.415Z,77.82
2022-10-21T02:57:50.925Z,78.28
2022-10-21T03:00:17.683Z,79.08
2022-10-21T03:02:44.218Z,79.16
2022-10-21T03:05:11.147Z,79.58
2022-10-21T03:07:37.848Z,79.50
2022-10-21T03:10:05.578Z,79.08
2022-10-21T03:12:32.184Z,78.81
2022-10-21T03:14:58.766Z,78.55
2022-10-21T03:17:25.605Z,77.99
2022-10-21T03:19:52.235Z,77.84
2022-10-21T03:22:18.750Z,78.32
2022-10-21T03:24:45.470Z,78.33
2022-10-21T03:27:11.975Z,78.38
2022-10-21T03:29:38.614Z,77.88
2022-10-21T03:32:05.526Z,77.35
2022-10-21T03:34:32.067Z,77.60
2022-10-21T03:36:58.579Z,78.07
2022-10-21T03:39:25.256Z,78.22
2022-10-21T03:41:51.762Z,78.07
2022-10-21T03:44:18.364Z,77.88
2022-10-21T03:46:44.933Z,77.59
2022-10-21T03:49:18.334Z,77.18
2022-10-21T03:51:48.320Z,77.13
2022-10-21T03:54:15.014Z,78.24
2022-10-21T03:56:41.908Z,78.60
2022-10-21T03:59:08.598Z,78.08
2022-10-21T04:01:35.343Z,79.83
2022-10-21T04:04:01.900Z,79.87
2022-10-21T04:06:28.562Z,81.14
2022-10-21T04:08:55.159Z,82.20
2022-10-21T04:11:22.011Z,81.62
2022-10-21T04:13:48.588Z,81.10
2022-10-21T04:16:18.633Z,79.81
2022-10-21T04:18:45.172Z,79.18
2022-10-21T04:21:12.667Z,78.51
2022-10-21T04:23:39.354Z,78.17
2022-10-21T04:26:06.867Z,78.33
2022-10-21T04:28:34.218Z,78.66
2022-10-21T04:31:00.875Z,78.21
2022-10-21T04:33:27.450Z,78.00
2022-10-21T04:35:55.471Z,78.27
2022-10-21T04:38:22.903Z,78.10
2022-10-21T04:41:07.413Z,78.06
2022-10-21T04:43:34.072Z,77.90
2022-10-21T04:46:00.569Z,78.29
2022-10-21T04:48:27.326Z,78.24
2022-10-21T04:50:54.265Z,77.38
2022-10-21T04:53:22.308Z,78.31
2022-10-21T04:55:53.279Z,78.30
2022-10-21T04:58:22.071Z,80.40
2022-10-21T05:00:52.204Z,80.90
2022-10-21T05:03:19.918Z,81.49
2022-10-21T05:05:49.608Z,82.08
2022-10-21T05:08:16.482Z,82.94
2022-10-21T05:10:46.777Z,84.89
2022-10-21T05:13:13.644Z,86.02
2022-10-21T05:15:40.208Z,86.19
2022-10-21T05:18:07.276Z,86.31
2022-10-21T05:20:33.808Z,84.31
2022-10-21T05:23:00.384Z,83.08
2022-10-21T05:25:29.194Z,82.48
2022-10-21T05:27:58.355Z,80.68
2022-10-21T05:30:24.866Z,80.33
2022-10-21T05:32:51.485Z,80.34
2022-10-21T05:35:18.042Z,79.92
2022-10-21T05:37:44.632Z,79.98
2022-10-21T05:40:11.787Z,79.93
2022-10-21T05:42:38.680Z,79.71
2022-10-21T05:45:06.105Z,79.71
2022-10-21T05:47:32.740Z,81.94
2022-10-21T05:49:59.234Z,81.42
2022-10-21T05:52:25.823Z,81.03
2022-10-21T05:54:52.419Z,81.67
2022-10-21T05:57:19.002Z,81.46
2022-10-21T05:59:45.481Z,80.79
2022-10-21T06:02:12.448Z,80.37
2022-10-21T06:04:39.061Z,80.21
2022-10-21T06:07:06.320Z,82.70
2022-10-21T06:09:33.083Z,83.40
2022-10-21T06:11:59.707Z,82.88
2022-10-21T06:14:27.038Z,81.90
2022-10-21T06:16:53.694Z,80.82
2022-10-21T06:19:20.203Z,80.28
2022-10-21T06:21:48.126Z,80.29
2022-10-21T06:24:15.309Z,79.93
2022-10-21T06:26:41.984Z,79.23
2022-10-21T06:29:08.507Z,78.92
2022-10-21T06:31:35.113Z,78.83
2022-10-21T06:34:01.657Z,78.41
2022-10-21T06:36:28.211Z,78.40
2022-10-21T06:38:54.789Z,78.17
2022-10-21T06:41:21.550Z,77.86
2022-10-21T06:43:48.050Z,78.65
2022-10-21T06:46:15.954Z,78.96
2022-10-21T06:48:42.457Z,78.84
2022-10-21T06:51:21.687Z,81.39
2022-10-21T06:53:52.847Z,82.13
2022-10-21T06:56:20.463Z,81.17
2022-10-21T06:58:48.427Z,81.03
2022-10-21T07:01:34.337Z,80.71
2022-10-21T07:04:09.267Z,80.50
2022-10-21T07:06:36.720Z,80.13
2022-10-21T07:09:05.927Z,80.53
2022-10-21T07:11:32.563Z,81.12
2022-10-21T07:14:01.044Z,81.16
2022-10-21T07:16:33.273Z,80.82
2022-10-21T07:19:00.068Z,80.80
2022-10-21T07:21:29.860Z,80.70
2022-10-21T07:23:59.385Z,81.30
2022-10-21T07:26:28.859Z,81.82
2022-10-21T07:28:56.842Z,81.83
2022-10-21T07:31:23.550Z,82.02
2022-10-21T07:33:50.381Z,81.51
2022-10-21T07:36:26.962Z,81.49
2022-10-21T07:38:55.507Z,81.27
2022-10-21T07:41:25.346Z,82.10
2022-10-21T07:43:53.021Z,82.99
2022-10-21T07:46:21.411Z,82.98
2022-10-21T07:48:48.444Z,83.22
2022-10-21T07:51:18.114Z,85.19
2022-10-21T07:53:45.301Z,84.93
2022-10-21T07:56:17.884Z,83.61
2022-10-21T07:58:45.012Z,83.21
2022-10-21T08:01:11.893Z,82.95
2022-10-21T08:03:39.000Z,82.61
2022-10-21T08:06:08.204Z,82.65
2022-10-21T08:08:36.187Z,82.31
2022-10-21T08:11:04.652Z,83.34
2022-10-21T08:13:31.375Z,84.10
2022-10-21T08:15:58.831Z,84.67
2022-10-21T08:18:25.590Z,83.84
2022-10-21T08:20:52.284Z,83.67
2022-10-21T08:23:21.516Z,82.11
2022-10-21T08:25:53.882Z,81.88
2022-10-21T08:28:21.875Z,81.19
2022-10-21T08:30:48.538Z,81.96
2022-10-21T08:33:15.974Z,81.68
2022-10-21T08:35:44.162Z,81.36
2022-10-21T08:38:12.004Z,80.89
2022-10-21T08:40:45.818Z,80.05
2022-10-21T08:43:28.022Z,79.53
2022-10-21T08:46:03.280Z,80.17
2022-10-21T08:48:36.282Z,81.81
2022-10-21T08:51:05.665Z,80.56
2022-10-21T08:53:47.300Z,79.39
2022-10-21T08:56:19.769Z,79.71
2022-10-21T08:58:50.890Z,79.82
2022-10-21T09:01:26.395Z,80.10
2022-10-21T09:04:02.845Z,80.10
2022-10-21T09:06:35.301Z,80.77
2022-10-21T09:09:10.695Z,80.64
2022-10-21T09:12:11.369Z,80.66
2022-10-21T09:14:56.311Z,81.03
2022-10-21T09:17:51.835Z,79.34
2022-10-21T09:20:37.233Z,81.06
2022-10-21T09:23:37.181Z,82.24
2022-10-21T09:26:27.980Z,82.77
2022-10-21T09:28:57.752Z,83.28
2022-10-21T09:31:24.330Z,83.84
2022-10-21T09:33:58.405Z,85.37
2022-10-21T09:36:37.541Z,85.44
2022-10-21T09:39:16.411Z,85.93
2022-10-21T09:41:46.780Z,85.22
2022-10-21T09:44:19.374Z,84.01
2022-10-21T09:46:47.304Z,82.49
2022-10-21T09:50:01.617Z,82.27
2022-10-21T09:52:17.253Z,77.39
2022-10-21T09:54:45.080Z,79.31
2022-10-21T09:57:34.804Z,78.50
2022-10-21T10:00:05.257Z,79.67
2022-10-21T10:02:44.405Z,80.03
2022-10-21T10:05:44.161Z,80.61
2022-10-21T10:08:31.855Z,87.87
2022-10-21T10:11:04.716Z,75.37
2022-10-21T10:13:31.407Z,73.37
2022-10-21T10:16:28.186Z,73.95
2022-10-21T10:19:16.417Z,76.30
2022-10-21T10:21:43.796Z,77.97
2022-10-21T10:24:20.241Z,78.01
2022-10-21T10:26:47.617Z,78.40
2022-10-21T10:29:20.150Z,77.83
2022-10-21T10:31:50.990Z,78.62
2022-10-21T10:34:29.562Z,79.87
2022-10-21T10:37:18.639Z,79.53
2022-10-21T10:39:52.057Z,80.36
2022-10-21T10:42:21.994Z,79.99
2022-10-21T10:44:54.056Z,81.55
2022-10-21T10:47:27.595Z,83.95
2022-10-21T10:49:54.300Z,84.32
2022-10-21T10:52:22.543Z,85.89
2022-10-21T10:55:08.083Z,85.86
2022-10-21T10:57:45.988Z,86.70
2022-10-21T11:00:21.574Z,86.93
2022-10-21T11:03:00.290Z,86.54
2022-10-21T11:05:27.001Z,85.69
2022-10-21T11:07:56.294Z,85.73
2022-10-21T11:10:22.859Z,85.20
2022-10-21T11:12:49.675Z,84.17
2022-10-21T11:15:16.490Z,83.23
2022-10-21T11:18:00.482Z,83.10
2022-10-21T11:20:35.361Z,82.84
2022-10-21T11:23:42.310Z,84.56
2022-10-21T11:26:49.598Z,84.82
2022-10-21T11:29:35.957Z,84.66
2022-10-21T11:32:21.469Z,84.88
2022-10-21T11:35:15.808Z,84.81
2022-10-21T11:37:57.750Z,84.08
2022-10-21T11:40:33.196Z,85.67
2022-10-21T11:43:16.548Z,85.83
2022-10-21T11:45:54.393Z,85.49
2022-10-21T11:48:38.423Z,85.63
2022-10-21T11:51:24.512Z,85.46
2022-10-21T11:53:56.861Z,86.04
2022-10-21T11:56:23.478Z,87.64
2022-10-21T11:59:20.403Z,87.88
2022-10-21T12:02:11.140Z,87.53
2022-10-21T12:04:45.133Z,86.50
2022-10-21T12:07:30.106Z,86.60
2022-10-21T12:10:15.331Z,86.08
2022-10-21T12:12:46.254Z,85.76
2022-10-21T12:15:45.261Z,87.32
2022-10-21T12:18:16.090Z,86.89
2022-10-21T12:20:45.631Z,86.60
2022-10-21T12:23:17.817Z,85.51
2022-10-21T12:25:49.475Z,86.99
2022-10-21T12:28:27.772Z,87.23
2022-10-21T12:31:22.525Z,86.94
2022-10-21T12:33:49.941Z,88.12
2022-10-21T12:36:25.302Z,88.10
2022-10-21T12:38:54.763Z,88.10
2022-10-21T12:41:21.211Z,88.68
2022-10-21T12:44:01.999Z,89.37
2022-10-21T12:46:39.157Z,90.38
2022-10-21T12:49:18.819Z,90.04
2022-10-21T12:52:02.996Z,90.03
2022-10-21T12:54:37.381Z,90.29
2022-10-21T12:57:10.798Z,89.37
2022-10-21T12:59:42.699Z,89.42
2022-10-21T13:02:18.075Z,89.04
2022-10-21T13:04:47.256Z,88.98
2022-10-21T13:07:16.526Z,88.20
2022-10-21T13:10:03.125Z,90.26
2022-10-21T13:12:32.432Z,89.74
2022-10-21T13:15:22.302Z,88.78
2022-10-21T13:17:55.851Z,89.18
2022-10-21T13:20:22.528Z,88.22
2022-10-21T13:23:28.418Z,87.08
2022-10-21T13:26:18.557Z,86.87
2022-10-21T13:29:06.813Z,87.09
2022-10-21T13:31:34.106Z,85.35
2022-10-21T13:34:04.190Z,84.75
2022-10-21T13:36:42.872Z,84.36
2022-10-21T13:39:43.586Z,84.08
2022-10-21T13:42:17.340Z,84.15
2022-10-21T13:45:04.749Z,83.36
2022-10-21T13:47:35.771Z,84.73
2022-10-21T13:50:20.178Z,85.59
2022-10-21T13:53:00.516Z,86.39
2022-10-21T13:55:29.379Z,86.80
2022-10-21T13:58:00.608Z,88.12
2022-10-21T14:00:32.109Z,87.01
2022-10-21T14:03:06.014Z,86.21
2022-10-21T14:05:48.762Z,84.94
2022-10-21T14:08:40.791Z,86.24
2022-10-21T14:11:16.805Z,85.77
2022-10-21T14:13:44.013Z,86.58
2022-10-21T14:16:19.123Z,84.47
2022-10-21T14:18:47.820Z,85.07
2022-10-21T14:21:20.768Z,84.98
2022-10-21T14:23:47.833Z,84.19
2022-10-21T14:26:14.595Z,84.15
2022-10-21T14:28:43.326Z,85.13
2022-10-21T14:31:12.185Z,86.35
2022-10-21T14:33:44.132Z,85.97
2022-10-21T14:36:14.505Z,85.45
2022-10-21T14:38:51.115Z,85.18
2022-10-21T14:41:30.006Z,85.62
2022-10-21T14:44:07.102Z,85.03
2022-10-21T14:46:44.783Z,85.40
2022-10-21T14:49:21.917Z,85.26
2022-10-21T14:51:49.435Z,84.84
2022-10-21T14:54:33.375Z,84.52
2022-10-21T14:57:00.649Z,83.99
2022-10-21T14:59:39.213Z,83.93
2022-10-21T15:02:15.902Z,84.82
2022-10-21T15:04:50.128Z,85.23
2022-10-21T15:07:36.471Z,85.64
2022-10-21T15:10:03.005Z,87.00
2022-10-21T15:12:38.930Z,86.38
2022-10-21T15:15:38.003Z,86.54
2022-10-21T15:18:11.149Z,86.43
2022-10-21T15:20:38.114Z,86.37
2022-10-21T15:23:04.830Z,86.29
2022-10-21T15:25:31.526Z,87.81
2022-10-21T15:27:58.129Z,88.38
2022-10-21T15:30:25.082Z,87.96
2022-10-21T15:32:51.582Z,87.00
2022-10-21T15:35:21.335Z,86.44
2022-10-21T15:37:49.361Z,86.98
2022-10-21T15:40:17.311Z,86.09
2022-10-21T15:42:44.255Z,86.61
2022-10-21T15:45:20.055Z,86.82
2022-10-21T15:47:54.478Z,86.41
2022-10-21T15:50:24.266Z,85.91
2022-10-21T15:52:51.361Z,84.70
2022-10-21T15:55:18.063Z,83.79
2022-10-21T15:57:44.623Z,83.41
2022-10-21T16:00:17.208Z,83.40
2022-10-21T16:02:44.306Z,82.88
2022-10-21T16:05:10.940Z,82.68
2022-10-21T16:07:37.701Z,82.38
2022-10-21T16:10:16.494Z,82.45
2022-10-21T16:12:44.161Z,82.63
2022-10-21T16:15:11.023Z,82.44
2022-10-21T16:17:37.660Z,84.01
2022-10-21T16:20:04.674Z,84.36
2022-10-21T16:22:31.303Z,85.34
2022-10-21T16:24:57.847Z,84.62
2022-10-21T16:27:43.363Z,83.89
2022-10-21T16:30:11.722Z,83.10
2022-10-21T16:32:38.457Z,82.54
2022-10-21T16:35:05.729Z,82.50
2022-10-21T16:37:32.434Z,82.56
2022-10-21T16:39:59.062Z,82.78
2022-10-21T16:42:25.638Z,82.50
2022-10-21T16:44:52.322Z,82.47
2022-10-21T16:47:21.327Z,82.37
2022-10-21T16:49:48.991Z,82.46
2022-10-21T16:52:16.152Z,82.35
2022-10-21T16:54:46.482Z,82.70
2022-10-21T16:57:15.094Z,84.20
2022-10-21T16:59:41.635Z,84.73
2022-10-21T17:02:16.180Z,84.51
2022-10-21T17:04:43.025Z,83.91
2022-10-21T17:07:10.638Z,83.32
2022-10-21T17:09:37.467Z,82.88
2022-10-21T17:12:04.224Z,83.15
2022-10-21T17:14:31.265Z,83.32
2022-10-21T17:16:57.820Z,82.98
2022-10-21T17:19:24.496Z,83.76
2022-10-21T17:21:51.044Z,83.81
2022-10-21T17:24:18.279Z,84.76
2022-10-21T17:26:45.489Z,85.20
2022-10-21T17:29:12.094Z,83.64
2022-10-21T17:31:41.115Z,82.94
2022-10-21T17:34:16.434Z,82.85
2022-10-21T17:36:42.991Z,83.18
2022-10-21T17:39:09.501Z,83.94
2022-10-21T17:41:36.414Z,83.04
2022-10-21T17:44:02.959Z,83.22
2022-10-21T17:46:29.625Z,82.85
2022-10-21T17:48:57.809Z,82.51
2022-10-21T17:51:25.209Z,82.77
2022-10-21T17:53:53.177Z,82.22
2022-10-21T17:56:20.419Z,82.45
2022-10-21T17:58:52.263Z,81.94
2022-10-21T18:01:19.748Z,81.96
2022-10-21T18:03:46.396Z,81.85
2022-10-21T18:06:14.371Z,81.72
2022-10-21T18:08:41.501Z,81.73
2022-10-21T18:11:13.946Z,81.71
2022-10-21T18:13:40.948Z,81.98
2022-10-21T18:16:09.130Z,81.81
2022-10-21T18:18:36.893Z,82.49
2022-10-21T18:21:05.614Z,82.45
2022-10-21T18:23:32.638Z,81.83
2022-10-21T18:26:07.500Z,81.82
2022-10-21T18:28:34.891Z,81.68
2022-10-21T18:31:02.882Z,81.92
2022-10-21T18:33:29.898Z,81.75
2022-10-21T18:35:56.742Z,81.53
2022-10-21T18:38:23.327Z,81.64
2022-10-21T18:41:02.020Z,81.78
2022-10-21T18:43:36.186Z,81.60
2022-10-21T18:46:04.000Z,81.29
2022-10-21T18:48:30.763Z,81.08
2022-10-21T18:50:57.546Z,81.37
2022-10-21T18:53:24.463Z,80.99
2022-10-21T18:55:51.068Z,80.36
2022-10-21T18:58:17.740Z,80.07
2022-10-21T19:00:44.354Z,80.45
2022-10-21T19:03:10.950Z,81.00
2022-10-21T19:05:37.471Z,81.54
2022-10-21T19:08:04.166Z,81.56
2022-10-21T19:10:30.695Z,81.50
2022-10-21T19:12:57.311Z,81.55
2022-10-21T19:15:23.925Z,81.69
2022-10-21T19:17:50.472Z,81.44
2022-10-21T19:20:17.059Z,81.83
2022-10-21T19:22:43.643Z,81.79
2022-10-21T19:25:10.175Z,81.96
2022-10-21T19:27:36.982Z,82.71
2022-10-21T19:30:03.983Z,82.93
2022-10-21T19:32:30.600Z,82.65
2022-10-21T19:34:57.086Z,82.53
2022-10-21T19:37:23.916Z,82.35
2022-10-21T19:39:50.420Z,82.55
2022-10-21T19:42:16.984Z,82.71
2022-10-21T19:44:43.583Z,82.31
2022-10-21T19:47:10.271Z,82.43
2022-10-21T19:49:36.917Z,82.51
2022-10-21T19:52:03.621Z,82.40
2022-10-21T19:54:30.136Z,82.11
2022-10-21T19:56:57.032Z,82.27
2022-10-21T19:59:23.699Z,82.28
2022-10-21T20:01:50.324Z,81.81
2022-10-21T20:04:16.869Z,82.13
2022-10-21T20:06:43.532Z,82.63
2022-10-21T20:09:13.924Z,82.46
2022-10-21T20:11:42.686Z,82.29
2022-10-21T20:14:17.374Z,81.95
2022-10-21T20:16:44.806Z,82.25
2022-10-21T20:19:15.232Z,81.93
2022-10-21T20:21:42.819Z,81.28
2022-10-21T20:24:12.945Z,81.32
2022-10-21T20:29:12.944Z,80.27
2022-10-21T20:31:39.482Z,81.01
2022-10-21T20:34:06.330Z,80.90
2022-10-21T20:36:33.506Z,80.62
2022-10-21T20:39:02.525Z,80.43
2022-10-21T20:41:32.942Z,80.49
2022-10-21T20:44:01.287Z,80.57
2022-10-21T20:46:28.006Z,80.87
2022-10-21T20:48:55.035Z,82.24
2022-10-21T20:51:26.895Z,83.42
2022-10-21T20:53:59.089Z,82.75
2022-10-21T20:56:31.532Z,82.98
2022-10-21T20:59:00.393Z,83.25
2022-10-21T21:01:32.608Z,82.93
2022-10-21T21:04:02.574Z,82.78
2022-10-21T21:06:29.282Z,82.59
2022-10-21T21:09:28.917Z,82.39
2022-10-21T21:11:44.932Z,82.40
2022-10-21T21:14:12.482Z,83.01
2022-10-21T21:16:39.604Z,82.81
2022-10-21T21:19:07.732Z,82.94
2022-10-21T21:21:37.008Z,82.62
2022-10-21T21:24:04.157Z,82.40
2022-10-21T21:26:33.339Z,82.53
2022-10-21T21:29:00.827Z,84.62
2022-10-21T21:31:29.906Z,84.25
2022-10-21T21:33:57.020Z,84.03
2022-10-21T21:36:24.516Z,85.07
2022-10-21T21:38:51.269Z,84.54
2022-10-21T21:41:18.260Z,86.73
2022-10-21T21:43:46.189Z,86.20
2022-10-21T21:46:12.975Z,85.57
2022-10-21T21:48:39.569Z,84.90
2022-10-21T21:51:09.221Z,84.44
2022-10-21T21:53:36.849Z,83.99
2022-10-21T21:56:05.723Z,83.46
2022-10-21T21:58:32.304Z,82.99
2022-10-21T22:01:18.818Z,82.83
2022-10-21T22:03:46.409Z,82.59
2022-10-21T22:06:14.122Z,82.39
2022-10-21T22:08:42.262Z,82.16
2022-10-21T22:11:11.314Z,82.16
2022-10-21T22:13:39.205Z,82.56
2022-10-21T22:16:07.539Z,84.83
2022-10-21T22:18:34.322Z,86.04
2022-10-21T22:21:02.383Z,85.27
2022-10-21T22:23:29.053Z,85.27
2022-10-21T22:25:57.646Z,84.92
2022-10-21T22:28:25.124Z,85.77
2022-10-21T22:31:03.630Z,86.05
2022-10-21T22:33:30.444Z,85.32
2022-10-21T22:35:57.370Z,84.35
2022-10-21T22:38:24.219Z,85.51
2022-10-21T22:40:54.156Z,86.92
2022-10-21T22:43:20.788Z,87.79
2022-10-21T22:45:48.166Z,87.98
2022-10-21T22:48:16.032Z,87.16
2022-10-21T22:50:42.840Z,86.11
2022-10-21T22:53:09.787Z,85.36
2022-10-21T22:55:36.522Z,84.88
2022-10-21T22:58:03.584Z,84.22
2022-10-21T23:00:30.290Z,84.85
2022-10-21T23:02:57.195Z,84.86
2022-10-21T23:05:23.856Z,84.41
2022-10-21T23:07:50.591Z,84.03
2022-10-21T23:10:17.235Z,83.90
2022-10-21T23:12:43.885Z,83.78
2022-10-21T23:15:11.343Z,83.41
2022-10-21T23:17:37.880Z,83.29
2022-10-21T23:20:04.791Z,83.07
2022-10-21T23:22:31.481Z,83.04
2022-10-21T23:24:58.042Z,83.04
2022-10-21T23:27:24.637Z,82.95
2022-10-21T23:29:51.367Z,82.87
2022-10-21T23:32:18.308Z,82.84
2022-10-21T23:34:44.885Z,82.97
2022-10-21T23:37:11.601Z,83.04
2022-10-21T23:39:38.240Z,82.81
2022-10-21T23:42:05.398Z,83.21
2022-10-21T23:44:31.984Z,82.94
2022-10-21T23:46:58.631Z,83.23
2022-10-21T23:49:25.479Z,83.35
2022-10-21T23:51:52.903Z,83.39
2022-10-21T23:54:19.526Z,83.55
2022-10-21T23:56:46.205Z,83.71
2022-10-21T23:59:12.984Z,83.68
